createdAt,value
2018-11-06T00:01:31.279Z,30.97
2018-11-06T00:04:03.825Z,31.80
2018-11-06T00:06:33.002Z,31.75
2018-11-06T00:09:01.964Z,30.82
2018-11-06T00:11:30.905Z,30.90
2018-11-06T00:13:59.842Z,30.53
2018-11-06T00:16:28.798Z,35.45
2018-11-06T00:18:57.724Z,32.00
2018-11-06T00:21:26.673Z,37.55
2018-11-06T00:23:55.610Z,33.23
2018-11-06T00:26:24.549Z,32.63
2018-11-06T00:28:53.480Z,31.35
2018-11-06T00:31:22.399Z,32.45
2018-11-06T00:33:51.336Z,35.53
2018-11-06T00:36:20.346Z,34.60
2018-11-06T00:38:49.298Z,28.42
2018-11-06T00:41:18.221Z,27.48
2018-11-06T00:43:47.185Z,26.90
2018-11-06T00:46:16.097Z,25.90
2018-11-06T00:48:45.033Z,26.07
2018-11-06T00:51:13.957Z,26.02
2018-11-06T00:53:42.902Z,28.70
2018-11-06T00:56:11.835Z,27.42
2018-11-06T00:58:40.782Z,24.45
2018-11-06T01:01:09.709Z,25.95
2018-11-06T01:03:44.025Z,25.45
2018-11-06T01:06:12.952Z,26.20
2018-11-06T01:08:41.904Z,24.12
2018-11-06T01:11:10.837Z,24.10
2018-11-06T01:13:39.861Z,23.70
2018-11-06T01:16:08.789Z,23.00
2018-11-06T01:18:37.727Z,22.15
2018-11-06T01:21:06.669Z,22.20
2018-11-06T01:23:35.617Z,23.25
2018-11-06T01:26:04.556Z,22.90
2018-11-06T01:28:33.484Z,21.55
2018-11-06T01:31:02.394Z,19.55
2018-11-06T01:33:31.357Z,17.82
2018-11-06T01:36:00.278Z,17.70
2018-11-06T01:38:29.246Z,17.57
2018-11-06T01:40:58.168Z,18.65
2018-11-06T01:43:27.114Z,20.88
2018-11-06T01:45:56.065Z,19.67
2018-11-06T01:48:25.007Z,21.20
2018-11-06T01:50:53.928Z,20.92
2018-11-06T01:53:22.886Z,17.80
2018-11-06T01:55:51.819Z,16.90
2018-11-06T01:58:20.781Z,15.95
2018-11-06T02:00:49.708Z,16.70
2018-11-06T02:03:18.646Z,15.40
2018-11-06T02:05:47.577Z,15.50
2018-11-06T02:08:16.522Z,16.00
2018-11-06T02:10:45.457Z,16.10
2018-11-06T02:13:14.445Z,15.45
2018-11-06T02:15:43.362Z,16.00
2018-11-06T02:18:12.302Z,15.50
2018-11-06T02:20:41.222Z,16.20
2018-11-06T02:23:10.169Z,16.27
2018-11-06T02:25:39.086Z,15.65
2018-11-06T02:28:08.015Z,14.30
2018-11-06T02:30:36.921Z,14.63
2018-11-06T02:33:05.887Z,15.35
2018-11-06T02:35:34.818Z,15.38
2018-11-06T02:38:03.765Z,13.78
2018-11-06T02:40:32.679Z,13.27
2018-11-06T02:43:01.665Z,13.88
2018-11-06T02:45:30.577Z,14.40
2018-11-06T02:47:59.519Z,15.20
2018-11-06T02:50:28.450Z,13.72
2018-11-06T02:52:57.397Z,15.30
2018-11-06T02:55:26.329Z,14.53
2018-11-06T02:57:55.255Z,14.33
2018-11-06T03:00:24.170Z,14.23
2018-11-06T03:02:53.078Z,13.58
2018-11-06T03:05:22.036Z,13.70
2018-11-06T03:07:50.971Z,12.75
2018-11-06T03:10:19.982Z,12.50
2018-11-06T03:12:48.840Z,11.80
2018-11-06T03:15:17.773Z,11.38
2018-11-06T03:17:46.696Z,12.33
2018-11-06T03:20:15.690Z,11.40
2018-11-06T03:22:45.103Z,10.90
2018-11-06T03:25:14.018Z,11.30
2018-11-06T03:27:42.929Z,11.40
2018-11-06T03:30:13.751Z,10.25
2018-11-06T03:32:42.685Z,10.55
2018-11-06T03:35:12.733Z,10.20
2018-11-06T03:37:41.637Z,9.33
2018-11-06T03:40:11.330Z,10.23
2018-11-06T03:42:41.039Z,10.20
2018-11-06T03:45:10.756Z,10.80
2018-11-06T03:47:39.665Z,11.60
2018-11-06T03:50:09.976Z,11.63
2018-11-06T03:52:38.853Z,11.93
2018-11-06T03:55:07.826Z,12.23
2018-11-06T03:57:36.747Z,11.30
2018-11-06T04:00:07.593Z,11.50
2018-11-06T04:02:36.510Z,11.10
2018-11-06T04:05:06.173Z,10.35
2018-11-06T04:07:35.073Z,10.45
2018-11-06T04:10:05.000Z,11.20
2018-11-06T04:12:33.908Z,15.98
2018-11-06T04:15:02.825Z,17.60
2018-11-06T04:17:31.736Z,14.13
2018-11-06T04:20:00.661Z,13.30
2018-11-06T04:22:29.576Z,12.43
2018-11-06T04:24:58.516Z,12.17
2018-11-06T04:27:27.484Z,11.83
2018-11-06T04:29:56.434Z,11.68
2018-11-06T04:32:25.362Z,15.87
2018-11-06T04:34:54.309Z,14.50
2018-11-06T04:37:23.293Z,13.83
2018-11-06T04:39:52.225Z,14.15
2018-11-06T04:42:21.142Z,13.85
2018-11-06T04:44:50.062Z,12.93
2018-11-06T04:47:18.965Z,12.63
2018-11-06T04:49:47.897Z,10.80
2018-11-06T04:52:16.869Z,12.43
2018-11-06T04:54:45.818Z,12.70
2018-11-06T04:57:15.462Z,12.43
2018-11-06T04:59:44.420Z,12.80
2018-11-06T05:02:13.381Z,11.25
2018-11-06T05:04:42.257Z,11.07
2018-11-06T05:07:11.198Z,11.90
2018-11-06T05:09:40.121Z,11.87
2018-11-06T05:12:09.029Z,12.10
2018-11-06T05:14:37.958Z,11.15
2018-11-06T05:17:06.993Z,11.60
2018-11-06T05:19:35.918Z,12.28
2018-11-06T05:22:05.225Z,12.07
2018-11-06T05:24:34.165Z,13.37
2018-11-06T05:27:03.729Z,13.47
2018-11-06T05:29:32.742Z,13.10
2018-11-06T05:32:01.722Z,12.27
2018-11-06T05:34:30.618Z,11.57
2018-11-06T05:36:59.542Z,11.50
2018-11-06T05:39:28.527Z,11.30
2018-11-06T05:41:57.398Z,10.53
2018-11-06T05:44:26.297Z,11.10
2018-11-06T05:46:55.213Z,11.28
2018-11-06T05:49:24.129Z,10.93
2018-11-06T05:51:53.069Z,10.13
2018-11-06T05:54:21.990Z,13.77
2018-11-06T05:56:50.943Z,13.88
2018-11-06T05:59:19.865Z,14.43
2018-11-06T06:01:48.784Z,13.38
2018-11-06T06:04:17.698Z,14.05
2018-11-06T06:06:46.618Z,14.03
2018-11-06T06:09:15.521Z,14.13
2018-11-06T06:11:44.453Z,14.35
2018-11-06T06:14:13.366Z,13.37
2018-11-06T06:16:42.305Z,13.50
2018-11-06T06:19:11.195Z,14.70
2018-11-06T06:21:40.134Z,14.07
2018-11-06T06:24:09.041Z,13.63
2018-11-06T06:26:37.957Z,12.50
2018-11-06T06:29:07.617Z,12.40
2018-11-06T06:31:36.565Z,13.23
2018-11-06T06:34:05.557Z,12.97
2018-11-06T06:36:34.560Z,13.70
2018-11-06T06:39:03.554Z,12.13
2018-11-06T06:41:32.488Z,14.13
2018-11-06T06:44:01.401Z,15.67
2018-11-06T06:46:30.381Z,14.33
2018-11-06T06:48:59.277Z,13.50
2018-11-06T06:51:28.209Z,12.43
2018-11-06T06:53:57.167Z,11.70
2018-11-06T06:56:26.146Z,11.90
2018-11-06T06:58:55.658Z,13.05
2018-11-06T07:01:24.589Z,16.12
2018-11-06T07:03:54.268Z,15.63
2018-11-06T07:06:23.967Z,15.58
2018-11-06T07:11:38.801Z,12.50
2018-11-06T07:14:08.007Z,12.10
2018-11-06T07:16:36.937Z,13.13
2018-11-06T07:19:05.934Z,12.43
2018-11-06T07:21:34.880Z,13.32
2018-11-06T07:24:03.873Z,13.20
2018-11-06T07:26:33.302Z,14.28
2018-11-06T07:29:02.206Z,12.78
2018-11-06T07:31:31.243Z,11.97
2018-11-06T07:34:00.137Z,11.20
2018-11-06T07:36:29.104Z,11.87
2018-11-06T07:38:58.049Z,12.10
2018-11-06T07:41:27.038Z,14.18
2018-11-06T07:43:55.961Z,14.10
2018-11-06T07:46:24.889Z,15.03
2018-11-06T07:48:53.836Z,16.62
2018-11-06T07:51:22.750Z,18.55
2018-11-06T07:53:51.867Z,19.30
2018-11-06T07:56:20.878Z,19.90
2018-11-06T07:58:49.725Z,22.73
2018-11-06T08:01:18.629Z,22.52
2018-11-06T08:03:47.603Z,22.00
2018-11-06T08:06:16.563Z,19.70
2018-11-06T08:08:45.446Z,20.32
2018-11-06T08:11:14.348Z,18.90
2018-11-06T08:13:43.269Z,20.82
2018-11-06T08:16:12.206Z,22.60
2018-11-06T08:18:41.149Z,23.20
2018-11-06T08:21:10.037Z,23.57
2018-11-06T08:23:38.994Z,23.38
2018-11-06T08:26:08.005Z,23.30
2018-11-06T08:28:36.889Z,23.90
2018-11-06T08:31:06.320Z,23.57
2018-11-06T08:33:34.789Z,20.95
2018-11-06T08:36:03.693Z,23.75
2018-11-06T08:38:32.622Z,27.90
2018-11-06T08:41:01.515Z,28.45
2018-11-06T08:43:30.470Z,31.60
2018-11-06T08:45:59.484Z,35.50
2018-11-06T08:48:28.458Z,31.95
2018-11-06T08:50:57.405Z,34.03
2018-11-06T08:53:26.322Z,34.65
2018-11-06T08:55:55.318Z,41.18
2018-11-06T08:58:24.271Z,43.70
2018-11-06T09:00:53.165Z,40.17
2018-11-06T09:03:22.086Z,41.25
2018-11-06T09:05:50.990Z,41.20
2018-11-06T09:08:19.953Z,43.58
2018-11-06T09:10:48.852Z,39.95
2018-11-06T09:13:17.813Z,38.73
2018-11-06T09:15:46.760Z,40.03
2018-11-06T09:18:15.694Z,40.65
2018-11-06T09:20:44.650Z,40.55
2018-11-06T09:23:13.617Z,43.10
2018-11-06T09:25:42.602Z,42.45
2018-11-06T09:28:11.565Z,41.30
2018-11-06T09:30:40.487Z,40.10
2018-11-06T09:33:09.398Z,42.87
2018-11-06T09:35:38.298Z,44.45
2018-11-06T09:38:07.293Z,42.05
2018-11-06T09:40:36.187Z,43.90
2018-11-06T09:43:05.513Z,42.78
2018-11-06T09:45:34.444Z,45.70
2018-11-06T09:48:03.348Z,46.20
2018-11-06T09:50:32.305Z,39.67
2018-11-06T09:53:01.261Z,38.93
2018-11-06T09:55:30.144Z,39.18
2018-11-06T09:57:59.145Z,39.92
2018-11-06T10:00:28.042Z,39.03
2018-11-06T10:02:57.014Z,42.88
2018-11-06T10:05:25.941Z,40.67
2018-11-06T10:07:54.872Z,43.03
2018-11-06T10:10:23.891Z,35.90
2018-11-06T10:12:52.797Z,36.93
2018-11-06T10:15:21.833Z,39.03
2018-11-06T10:17:51.479Z,40.78
2018-11-06T10:20:21.170Z,39.78
2018-11-06T10:22:50.189Z,36.50
2018-11-06T10:25:19.110Z,35.35
2018-11-06T10:27:48.048Z,35.88
2018-11-06T10:30:18.277Z,39.13
2018-11-06T10:32:47.348Z,34.15
2018-11-06T10:35:16.297Z,34.55
2018-11-06T10:37:45.236Z,31.67
2018-11-06T10:40:15.818Z,31.80
2018-11-06T10:42:45.367Z,29.25
2018-11-06T10:45:14.374Z,28.93
2018-11-06T10:47:43.329Z,29.40
2018-11-06T10:50:13.190Z,27.70
2018-11-06T10:52:42.546Z,25.47
2018-11-06T10:55:12.537Z,25.65
2018-11-06T10:57:42.091Z,27.20
2018-11-06T11:00:17.266Z,27.63
2018-11-06T11:02:51.318Z,25.55
2018-11-06T11:05:22.077Z,22.53
2018-11-06T11:07:51.095Z,22.40
2018-11-06T11:10:20.069Z,20.25
2018-11-06T11:12:49.059Z,21.47
2018-11-06T11:15:18.015Z,23.60
2018-11-06T11:17:46.959Z,24.65
2018-11-06T11:20:16.033Z,24.77
2018-11-06T11:22:44.870Z,24.70
2018-11-06T11:25:16.408Z,24.60
2018-11-06T11:27:46.257Z,25.63
2018-11-06T11:30:16.085Z,26.50
2018-11-06T11:32:46.603Z,25.30
2018-11-06T11:35:15.790Z,26.20
2018-11-06T11:37:44.854Z,24.98
2018-11-06T11:40:14.842Z,25.93
2018-11-06T11:42:44.066Z,25.40
2018-11-06T11:45:13.982Z,25.83
2018-11-06T11:47:43.645Z,25.35
2018-11-06T11:50:13.838Z,27.20
2018-11-06T11:52:42.814Z,28.07
2018-11-06T11:55:11.905Z,26.60
2018-11-06T11:57:41.121Z,26.75
2018-11-06T12:00:13.088Z,27.20
2018-11-06T12:02:42.185Z,26.60
2018-11-06T12:05:11.696Z,25.77
2018-11-06T12:07:40.684Z,25.55
2018-11-06T12:10:10.818Z,25.27
2018-11-06T12:12:39.758Z,25.43
2018-11-06T12:15:11.869Z,25.30
2018-11-06T12:17:41.469Z,25.07
2018-11-06T12:20:10.751Z,25.07
2018-11-06T12:22:40.075Z,25.63
2018-11-06T12:25:09.482Z,25.50
2018-11-06T12:27:38.461Z,26.30
2018-11-06T12:30:09.403Z,25.77
2018-11-06T12:32:38.853Z,23.30
2018-11-06T12:35:08.310Z,21.50
2018-11-06T12:37:37.441Z,23.43
2018-11-06T12:40:07.233Z,22.42
2018-11-06T12:42:36.574Z,23.50
2018-11-06T12:45:07.149Z,24.45
2018-11-06T12:47:36.217Z,23.23
2018-11-06T12:50:05.924Z,23.20
2018-11-06T12:52:34.810Z,21.82
2018-11-06T12:55:04.022Z,21.15
2018-11-06T12:57:33.043Z,20.53
2018-11-06T13:00:01.987Z,21.60
2018-11-06T13:02:30.925Z,22.37
2018-11-06T13:04:59.903Z,21.50
2018-11-06T13:07:28.849Z,21.07
2018-11-06T13:09:57.906Z,22.52
2018-11-06T13:12:27.809Z,22.02
2018-11-06T13:14:57.238Z,21.50
2018-11-06T13:17:25.890Z,20.62
2018-11-06T13:19:54.845Z,20.55
2018-11-06T13:22:23.800Z,20.60
2018-11-06T13:24:52.761Z,19.10
2018-11-06T13:27:21.720Z,18.00
2018-11-06T13:29:50.682Z,19.30
2018-11-06T13:32:19.703Z,19.20
2018-11-06T13:34:48.654Z,19.12
2018-11-06T13:37:17.661Z,18.70
2018-11-06T13:39:46.601Z,19.85
2018-11-06T13:42:15.626Z,19.50
2018-11-06T13:44:44.724Z,19.45
2018-11-06T13:47:13.672Z,19.27
2018-11-06T13:49:42.618Z,20.07
2018-11-06T13:52:11.630Z,21.13
2018-11-06T13:54:40.543Z,20.50
2018-11-06T13:57:09.630Z,20.50
2018-11-06T13:59:38.701Z,21.03
2018-11-06T14:02:07.658Z,21.83
2018-11-06T14:04:36.601Z,20.80
2018-11-06T14:07:05.649Z,21.10
2018-11-06T14:09:34.585Z,21.33
2018-11-06T14:12:03.574Z,21.00
2018-11-06T14:14:32.512Z,22.60
2018-11-06T14:17:01.462Z,22.93
2018-11-06T14:19:30.559Z,22.43
2018-11-06T14:21:59.580Z,23.50
2018-11-06T14:24:28.580Z,23.60
2018-11-06T14:26:57.584Z,23.73
2018-11-06T14:29:26.626Z,23.43
2018-11-06T14:31:55.720Z,22.48
2018-11-06T14:34:24.701Z,24.80
2018-11-06T14:36:53.637Z,25.80
2018-11-06T14:39:22.875Z,25.95
2018-11-06T14:41:51.873Z,24.80
2018-11-06T14:44:20.821Z,25.90
2018-11-06T14:46:49.990Z,25.35
2018-11-06T14:49:19.483Z,24.05
2018-11-06T14:51:48.456Z,25.72
2018-11-06T14:54:17.366Z,36.77
2018-11-06T14:56:46.331Z,33.95
2018-11-06T14:59:15.930Z,29.85
2018-11-06T15:01:44.893Z,29.82
2018-11-06T15:04:13.911Z,41.28
2018-11-06T15:06:42.992Z,37.57
2018-11-06T15:09:11.934Z,25.25
2018-11-06T15:11:41.097Z,24.60
2018-11-06T15:14:10.046Z,23.30
2018-11-06T15:16:40.097Z,25.57
2018-11-06T15:19:09.049Z,24.25
2018-11-06T15:21:38.307Z,24.47
2018-11-06T15:24:07.288Z,24.70
2018-11-06T15:26:36.346Z,23.60
2018-11-06T15:29:05.693Z,24.82
2018-11-06T15:31:34.621Z,25.92
2018-11-06T15:34:03.678Z,25.60
2018-11-06T15:36:33.319Z,42.13
2018-11-06T15:39:02.263Z,65.00
2018-11-06T15:41:31.337Z,64.27
2018-11-06T15:44:00.213Z,39.35
2018-11-06T15:46:29.162Z,29.67
2018-11-06T15:48:58.186Z,29.37
2018-11-06T15:51:27.080Z,28.60
2018-11-06T15:53:55.999Z,27.10
2018-11-06T15:56:25.992Z,26.70
2018-11-06T15:58:55.396Z,25.97
2018-11-06T16:01:25.821Z,24.70
2018-11-06T16:03:54.742Z,26.30
2018-11-06T16:06:23.882Z,25.47
2018-11-06T16:08:52.818Z,25.47
2018-11-06T16:11:21.917Z,25.35
2018-11-06T16:13:50.874Z,26.87
2018-11-06T16:16:19.773Z,26.23
2018-11-06T16:18:48.697Z,27.32
2018-11-06T16:21:17.601Z,27.46
2018-11-06T16:23:46.542Z,27.80
2018-11-06T16:26:15.457Z,26.50
2018-11-06T16:28:44.397Z,27.13
2018-11-06T16:31:13.321Z,28.47
2018-11-06T16:33:42.258Z,27.77
2018-11-06T16:36:11.185Z,27.90
2018-11-06T16:38:40.146Z,28.12
2018-11-06T16:41:09.066Z,31.35
2018-11-06T16:43:38.011Z,32.20
2018-11-06T16:46:07.007Z,28.00
2018-11-06T16:48:36.686Z,24.75
2018-11-06T16:51:06.114Z,22.60
2018-11-06T16:53:35.112Z,24.05
2018-11-06T16:56:04.057Z,23.30
2018-11-06T16:58:32.987Z,22.27
2018-11-06T17:01:02.081Z,22.90
2018-11-06T17:03:30.881Z,24.12
2018-11-06T17:05:59.797Z,25.47
2018-11-06T17:08:28.729Z,25.47
2018-11-06T17:10:57.644Z,26.52
2018-11-06T17:13:26.581Z,25.48
2018-11-06T17:15:55.516Z,26.83
2018-11-06T17:18:24.449Z,29.37
2018-11-06T17:20:53.392Z,49.45
2018-11-06T17:23:22.338Z,33.18
2018-11-06T17:25:51.271Z,30.50
2018-11-06T17:28:20.202Z,30.50
2018-11-06T17:30:49.138Z,31.90
2018-11-06T17:33:18.072Z,35.20
2018-11-06T17:35:47.290Z,36.10
2018-11-06T17:38:16.372Z,47.27
2018-11-06T17:40:45.285Z,41.42
2018-11-06T17:43:14.225Z,51.10
2018-11-06T17:45:43.189Z,44.53
2018-11-06T17:48:12.145Z,40.80
2018-11-06T17:50:41.073Z,50.65
2018-11-06T17:53:10.055Z,44.80
2018-11-06T17:55:38.980Z,40.75
2018-11-06T17:58:07.921Z,38.90
2018-11-06T18:00:36.982Z,39.65
2018-11-06T18:03:06.185Z,34.20
2018-11-06T18:05:35.124Z,36.10
2018-11-06T18:08:04.088Z,37.88
2018-11-06T18:10:33.078Z,33.90
2018-11-06T18:13:01.999Z,39.27
2018-11-06T18:15:30.925Z,33.57
2018-11-06T18:17:59.908Z,30.40
2018-11-06T18:20:28.897Z,31.65
2018-11-06T18:22:57.835Z,30.40
2018-11-06T18:25:27.023Z,31.27
2018-11-06T18:27:55.909Z,31.77
2018-11-06T18:30:24.931Z,30.53
2018-11-06T18:32:53.838Z,30.12
2018-11-06T18:35:22.836Z,30.23
2018-11-06T18:37:51.814Z,29.42
2018-11-06T18:40:21.027Z,30.20
2018-11-06T18:42:50.850Z,29.83
2018-11-06T18:45:20.145Z,33.08
2018-11-06T18:47:49.131Z,42.83
2018-11-06T18:50:18.827Z,30.33
2018-11-06T18:52:48.817Z,32.10
2018-11-06T18:55:17.962Z,32.17
2018-11-06T18:57:46.897Z,31.43
2018-11-06T19:00:17.786Z,30.12
2018-11-06T19:02:47.630Z,29.55
2018-11-06T19:05:17.055Z,30.35
2018-11-06T19:07:46.103Z,28.62
2018-11-06T19:10:15.804Z,27.37
2018-11-06T19:12:44.945Z,28.90
2018-11-06T19:15:16.223Z,28.17
2018-11-06T19:17:45.809Z,27.83
2018-11-06T19:20:15.126Z,27.37
2018-11-06T19:22:44.133Z,28.07
2018-11-06T19:25:13.762Z,30.00
2018-11-06T19:27:42.757Z,28.57
2018-11-06T19:30:13.533Z,28.30
2018-11-06T19:32:42.434Z,26.10
2018-11-06T19:35:11.373Z,28.30
2018-11-06T19:37:40.906Z,27.93
2018-11-06T19:40:11.637Z,29.43
2018-11-06T19:42:41.262Z,29.40
2018-11-06T19:45:10.867Z,29.90
2018-11-06T19:47:39.776Z,29.90
2018-11-06T19:50:10.589Z,31.50
2018-11-06T19:52:39.781Z,30.62
2018-11-06T19:55:09.719Z,31.10
2018-11-06T19:57:38.645Z,30.52
2018-11-06T20:00:12.827Z,32.75
2018-11-06T20:02:42.797Z,32.95
2018-11-06T20:05:11.967Z,33.38
2018-11-06T20:07:42.013Z,34.38
2018-11-06T20:10:13.686Z,31.10
2018-11-06T20:12:43.892Z,31.13
2018-11-06T20:15:13.823Z,31.83
2018-11-06T20:17:43.320Z,31.97
2018-11-06T20:20:15.687Z,29.07
2018-11-06T20:22:44.991Z,29.70
2018-11-06T20:25:14.206Z,29.20
2018-11-06T20:27:43.566Z,29.27
2018-11-06T20:30:14.960Z,28.30
2018-11-06T20:32:43.892Z,28.80
2018-11-06T20:35:13.181Z,27.48
2018-11-06T20:37:42.133Z,28.67
2018-11-06T20:40:13.398Z,28.60
2018-11-06T20:42:43.077Z,28.10
2018-11-06T20:45:13.301Z,29.90
2018-11-06T20:47:42.673Z,30.95
2018-11-06T20:50:17.037Z,32.17
2018-11-06T20:52:46.298Z,30.40
2018-11-06T20:55:15.979Z,28.90
2018-11-06T20:57:44.944Z,31.73
2018-11-06T21:00:20.238Z,29.82
2018-11-06T21:02:51.365Z,28.67
2018-11-06T21:05:20.343Z,28.10
2018-11-06T21:07:49.479Z,27.55
2018-11-06T21:10:19.706Z,27.50
2018-11-06T21:12:48.650Z,28.32
2018-11-06T21:15:17.670Z,28.77
2018-11-06T21:17:46.685Z,28.73
2018-11-06T21:20:16.563Z,27.00
2018-11-06T21:22:45.477Z,28.00
2018-11-06T21:25:15.079Z,26.33
2018-11-06T21:27:44.260Z,28.12
